sensor_id;sensor_type;location;lat;lon;timestamp;P1;durP1;ratioP1;P2;durP2;ratioP2
6193;SDS011;3130;41.564;23.280;2023-09-07T00:01:57;13.70;;;12.00;;
6193;SDS011;3130;41.564;23.280;2023-09-07T00:04:24;15.00;;;13.50;;
6193;SDS011;3130;41.564;23.280;2023-09-07T00:06:51;14.83;;;13.23;;
6193;SDS011;3130;41.564;23.280;2023-09-07T00:09:18;14.50;;;13.07;;
6193;SDS011;3130;41.564;23.280;2023-09-07T00:11:47;15.93;;;12.97;;
6193;SDS011;3130;41.564;23.280;2023-09-07T00:14:14;14.33;;;12.87;;
6193;SDS011;3130;41.564;23.280;2023-09-07T00:16:43;16.10;;;13.73;;
6193;SDS011;3130;41.564;23.280;2023-09-07T00:19:10;15.93;;;13.20;;
6193;SDS011;3130;41.564;23.280;2023-09-07T00:21:37;14.87;;;13.37;;
6193;SDS011;3130;41.564;23.280;2023-09-07T00:24:04;14.80;;;12.90;;
6193;SDS011;3130;41.564;23.280;2023-09-07T00:26:31;16.53;;;12.90;;
6193;SDS011;3130;41.564;23.280;2023-09-07T00:28:58;14.63;;;13.13;;
6193;SDS011;3130;41.564;23.280;2023-09-07T00:31:25;15.83;;;13.60;;
6193;SDS011;3130;41.564;23.280;2023-09-07T00:33:54;13.97;;;12.23;;
6193;SDS011;3130;41.564;23.280;2023-09-07T00:36:21;14.17;;;12.57;;
6193;SDS011;3130;41.564;23.280;2023-09-07T00:38:48;16.17;;;13.93;;
6193;SDS011;3130;41.564;23.280;2023-09-07T00:41:15;14.83;;;13.40;;
6193;SDS011;3130;41.564;23.280;2023-09-07T00:43:42;17.00;;;13.07;;
6193;SDS011;3130;41.564;23.280;2023-09-07T00:46:09;13.90;;;12.40;;
6193;SDS011;3130;41.564;23.280;2023-09-07T00:48:36;15.00;;;12.83;;
6193;SDS011;3130;41.564;23.280;2023-09-07T00:51:06;15.63;;;13.97;;
6193;SDS011;3130;41.564;23.280;2023-09-07T00:53:33;14.30;;;12.77;;
6193;SDS011;3130;41.564;23.280;2023-09-07T00:56:00;14.43;;;12.60;;
6193;SDS011;3130;41.564;23.280;2023-09-07T00:58:28;13.93;;;12.63;;
6193;SDS011;3130;41.564;23.280;2023-09-07T01:00:55;14.60;;;13.10;;
6193;SDS011;3130;41.564;23.280;2023-09-07T01:03:23;14.90;;;13.40;;
6193;SDS011;3130;41.564;23.280;2023-09-07T01:05:51;16.30;;;14.33;;
6193;SDS011;3130;41.564;23.280;2023-09-07T01:08:25;15.50;;;13.33;;
6193;SDS011;3130;41.564;23.280;2023-09-07T01:10:55;14.90;;;13.20;;
6193;SDS011;3130;41.564;23.280;2023-09-07T01:13:22;14.30;;;12.80;;
6193;SDS011;3130;41.564;23.280;2023-09-07T01:15:49;15.93;;;13.90;;
6193;SDS011;3130;41.564;23.280;2023-09-07T01:18:17;13.77;;;12.37;;
6193;SDS011;3130;41.564;23.280;2023-09-07T01:20:45;15.33;;;13.73;;
6193;SDS011;3130;41.564;23.280;2023-09-07T01:23:15;15.60;;;13.93;;
6193;SDS011;3130;41.564;23.280;2023-09-07T01:25:42;15.70;;;14.00;;
6193;SDS011;3130;41.564;23.280;2023-09-07T01:28:09;14.83;;;12.73;;
6193;SDS011;3130;41.564;23.280;2023-09-07T01:30:36;15.37;;;13.77;;
6193;SDS011;3130;41.564;23.280;2023-09-07T01:33:04;16.00;;;13.87;;
6193;SDS011;3130;41.564;23.280;2023-09-07T01:35:32;15.80;;;14.10;;
6193;SDS011;3130;41.564;23.280;2023-09-07T01:38:01;16.00;;;14.23;;
6193;SDS011;3130;41.564;23.280;2023-09-07T01:40:29;15.60;;;13.83;;
6193;SDS011;3130;41.564;23.280;2023-09-07T01:42:56;14.57;;;13.07;;
6193;SDS011;3130;41.564;23.280;2023-09-07T01:45:23;13.97;;;11.40;;
6193;SDS011;3130;41.564;23.280;2023-09-07T01:47:50;15.23;;;13.07;;
6193;SDS011;3130;41.564;23.280;2023-09-07T01:50:18;13.63;;;12.23;;
6193;SDS011;3130;41.564;23.280;2023-09-07T01:52:46;13.07;;;11.77;;
6193;SDS011;3130;41.564;23.280;2023-09-07T01:55:14;17.20;;;12.60;;
6193;SDS011;3130;41.564;23.280;2023-09-07T01:57:43;15.87;;;13.53;;
6193;SDS011;3130;41.564;23.280;2023-09-07T02:00:11;15.20;;;13.70;;
6193;SDS011;3130;41.564;23.280;2023-09-07T02:02:38;15.17;;;13.50;;
6193;SDS011;3130;41.564;23.280;2023-09-07T02:05:06;15.00;;;13.33;;
6193;SDS011;3130;41.564;23.280;2023-09-07T02:07:33;13.40;;;12.00;;
6193;SDS011;3130;41.564;23.280;2023-09-07T02:10:01;18.17;;;13.63;;
6193;SDS011;3130;41.564;23.280;2023-09-07T02:12:28;14.33;;;12.93;;
6193;SDS011;3130;41.564;23.280;2023-09-07T02:14:58;13.77;;;12.37;;
6193;SDS011;3130;41.564;23.280;2023-09-07T02:17:26;14.50;;;12.70;;
6193;SDS011;3130;41.564;23.280;2023-09-07T02:19:53;14.17;;;12.67;;
6193;SDS011;3130;41.564;23.280;2023-09-07T02:22:20;14.70;;;12.70;;
6193;SDS011;3130;41.564;23.280;2023-09-07T02:24:47;14.23;;;12.37;;
6193;SDS011;3130;41.564;23.280;2023-09-07T02:27:14;14.17;;;12.77;;
6193;SDS011;3130;41.564;23.280;2023-09-07T02:29:42;15.17;;;13.63;;
6193;SDS011;3130;41.564;23.280;2023-09-07T02:32:10;14.97;;;13.10;;
6193;SDS011;3130;41.564;23.280;2023-09-07T02:34:37;13.00;;;10.97;;
6193;SDS011;3130;41.564;23.280;2023-09-07T02:37:04;14.13;;;12.27;;
6193;SDS011;3130;41.564;23.280;2023-09-07T02:39:31;15.37;;;11.83;;
6193;SDS011;3130;41.564;23.280;2023-09-07T02:41:59;14.17;;;12.43;;
6193;SDS011;3130;41.564;23.280;2023-09-07T02:44:26;15.43;;;13.93;;
6193;SDS011;3130;41.564;23.280;2023-09-07T02:46:53;15.33;;;12.97;;
6193;SDS011;3130;41.564;23.280;2023-09-07T02:49:21;14.13;;;12.73;;
6193;SDS011;3130;41.564;23.280;2023-09-07T02:51:48;14.03;;;12.40;;
6193;SDS011;3130;41.564;23.280;2023-09-07T02:54:15;14.10;;;12.40;;
6193;SDS011;3130;41.564;23.280;2023-09-07T02:56:42;13.33;;;11.97;;
6193;SDS011;3130;41.564;23.280;2023-09-07T02:59:09;13.97;;;12.47;;
6193;SDS011;3130;41.564;23.280;2023-09-07T03:01:38;13.33;;;12.03;;
6193;SDS011;3130;41.564;23.280;2023-09-07T03:04:05;14.53;;;12.07;;
6193;SDS011;3130;41.564;23.280;2023-09-07T03:06:34;17.53;;;11.83;;
6193;SDS011;3130;41.564;23.280;2023-09-07T03:09:01;13.47;;;12.07;;
6193;SDS011;3130;41.564;23.280;2023-09-07T03:11:28;14.13;;;12.73;;
6193;SDS011;3130;41.564;23.280;2023-09-07T03:14:26;14.27;;;12.80;;
6193;SDS011;3130;41.564;23.280;2023-09-07T03:17:28;13.73;;;12.37;;
6193;SDS011;3130;41.564;23.280;2023-09-07T03:19:56;15.23;;;12.40;;
6193;SDS011;3130;41.564;23.280;2023-09-07T03:22:24;13.43;;;12.03;;
6193;SDS011;3130;41.564;23.280;2023-09-07T03:24:53;14.63;;;13.20;;
6193;SDS011;3130;41.564;23.280;2023-09-07T03:27:20;15.23;;;12.63;;
6193;SDS011;3130;41.564;23.280;2023-09-07T03:29:49;15.90;;;12.87;;
6193;SDS011;3130;41.564;23.280;2023-09-07T03:32:17;15.33;;;12.93;;
6193;SDS011;3130;41.564;23.280;2023-09-07T03:34:44;13.87;;;12.40;;
6193;SDS011;3130;41.564;23.280;2023-09-07T03:37:11;17.40;;;13.57;;
6193;SDS011;3130;41.564;23.280;2023-09-07T03:39:39;14.77;;;13.27;;
6193;SDS011;3130;41.564;23.280;2023-09-07T03:42:06;14.67;;;13.13;;
6193;SDS011;3130;41.564;23.280;2023-09-07T03:44:33;13.97;;;12.47;;
6193;SDS011;3130;41.564;23.280;2023-09-07T03:47:01;15.30;;;13.70;;
6193;SDS011;3130;41.564;23.280;2023-09-07T03:49:28;14.93;;;12.90;;
6193;SDS011;3130;41.564;23.280;2023-09-07T03:51:55;13.67;;;12.30;;
6193;SDS011;3130;41.564;23.280;2023-09-07T03:54:22;15.07;;;13.33;;
6193;SDS011;3130;41.564;23.280;2023-09-07T03:56:51;14.67;;;12.57;;
6193;SDS011;3130;41.564;23.280;2023-09-07T03:59:18;12.93;;;11.60;;
6193;SDS011;3130;41.564;23.280;2023-09-07T04:01:45;13.87;;;12.37;;
6193;SDS011;3130;41.564;23.280;2023-09-07T04:04:12;15.40;;;13.07;;
6193;SDS011;3130;41.564;23.280;2023-09-07T04:06:39;14.80;;;12.37;;
6193;SDS011;3130;41.564;23.280;2023-09-07T04:09:07;14.87;;;12.70;;
6193;SDS011;3130;41.564;23.280;2023-09-07T04:11:33;14.03;;;12.40;;
6193;SDS011;3130;41.564;23.280;2023-09-07T04:14:02;14.50;;;12.97;;
6193;SDS011;3130;41.564;23.280;2023-09-07T04:16:29;18.13;;;12.70;;
6193;SDS011;3130;41.564;23.280;2023-09-07T04:18:56;14.70;;;13.20;;
6193;SDS011;3130;41.564;23.280;2023-09-07T04:21:23;15.33;;;13.83;;
6193;SDS011;3130;41.564;23.280;2023-09-07T04:23:50;14.80;;;13.07;;
6193;SDS011;3130;41.564;23.280;2023-09-07T04:26:17;15.13;;;13.47;;
6193;SDS011;3130;41.564;23.280;2023-09-07T04:28:44;14.87;;;12.90;;
6193;SDS011;3130;41.564;23.280;2023-09-07T04:31:12;14.33;;;11.90;;
6193;SDS011;3130;41.564;23.280;2023-09-07T04:33:39;13.67;;;12.33;;
6193;SDS011;3130;41.564;23.280;2023-09-07T04:36:07;16.87;;;13.17;;
6193;SDS011;3130;41.564;23.280;2023-09-07T04:38:35;14.50;;;13.00;;
6193;SDS011;3130;41.564;23.280;2023-09-07T04:41:06;15.37;;;13.13;;
6193;SDS011;3130;41.564;23.280;2023-09-07T04:43:34;14.13;;;12.63;;
6193;SDS011;3130;41.564;23.280;2023-09-07T04:46:01;14.73;;;13.20;;
6193;SDS011;3130;41.564;23.280;2023-09-07T04:48:29;14.37;;;12.90;;
6193;SDS011;3130;41.564;23.280;2023-09-07T04:51:00;17.77;;;12.90;;
6193;SDS011;3130;41.564;23.280;2023-09-07T04:53:28;13.77;;;12.27;;
6193;SDS011;3130;41.564;23.280;2023-09-07T04:56:06;14.57;;;13.17;;
6193;SDS011;3130;41.564;23.280;2023-09-07T04:58:34;16.87;;;13.43;;
6193;SDS011;3130;41.564;23.280;2023-09-07T05:01:02;14.60;;;13.03;;
6193;SDS011;3130;41.564;23.280;2023-09-07T05:03:31;15.87;;;12.87;;
6193;SDS011;3130;41.564;23.280;2023-09-07T05:05:59;17.23;;;14.20;;
6193;SDS011;3130;41.564;23.280;2023-09-07T05:08:26;13.87;;;12.47;;
6193;SDS011;3130;41.564;23.280;2023-09-07T05:10:54;14.43;;;12.60;;
6193;SDS011;3130;41.564;23.280;2023-09-07T05:13:22;15.83;;;12.33;;
6193;SDS011;3130;41.564;23.280;2023-09-07T05:15:50;14.13;;;12.47;;
6193;SDS011;3130;41.564;23.280;2023-09-07T05:18:18;14.87;;;11.73;;
6193;SDS011;3130;41.564;23.280;2023-09-07T05:20:47;15.53;;;13.93;;
6193;SDS011;3130;41.564;23.280;2023-09-07T05:23:16;14.43;;;12.90;;
6193;SDS011;3130;41.564;23.280;2023-09-07T05:25:44;14.07;;;11.80;;
6193;SDS011;3130;41.564;23.280;2023-09-07T05:28:12;19.13;;;13.43;;
6193;SDS011;3130;41.564;23.280;2023-09-07T05:30:40;16.57;;;13.70;;
6193;SDS011;3130;41.564;23.280;2023-09-07T05:33:08;15.47;;;13.70;;
6193;SDS011;3130;41.564;23.280;2023-09-07T05:35:35;14.77;;;13.23;;
6193;SDS011;3130;41.564;23.280;2023-09-07T05:38:04;21.20;;;14.67;;
6193;SDS011;3130;41.564;23.280;2023-09-07T05:40:33;19.47;;;15.93;;
6193;SDS011;3130;41.564;23.280;2023-09-07T05:43:00;23.13;;;16.00;;
6193;SDS011;3130;41.564;23.280;2023-09-07T05:45:29;26.43;;;15.50;;
6193;SDS011;3130;41.564;23.280;2023-09-07T05:47:56;18.27;;;16.03;;
6193;SDS011;3130;41.564;23.280;2023-09-07T05:50:23;19.33;;;16.33;;
6193;SDS011;3130;41.564;23.280;2023-09-07T05:52:50;20.17;;;16.40;;
6193;SDS011;3130;41.564;23.280;2023-09-07T05:55:19;21.67;;;16.10;;
6193;SDS011;3130;41.564;23.280;2023-09-07T05:57:46;17.93;;;14.97;;
6193;SDS011;3130;41.564;23.280;2023-09-07T06:00:15;44.03;;;25.60;;
6193;SDS011;3130;41.564;23.280;2023-09-07T06:02:42;48.27;;;29.50;;
6193;SDS011;3130;41.564;23.280;2023-09-07T06:05:10;51.90;;;29.17;;
6193;SDS011;3130;41.564;23.280;2023-09-07T06:07:38;44.27;;;25.87;;
6193;SDS011;3130;41.564;23.280;2023-09-07T06:10:06;37.03;;;23.70;;
6193;SDS011;3130;41.564;23.280;2023-09-07T06:12:35;36.30;;;22.70;;
6193;SDS011;3130;41.564;23.280;2023-09-07T06:15:02;39.60;;;25.47;;
6193;SDS011;3130;41.564;23.280;2023-09-07T06:17:31;37.30;;;23.70;;
6193;SDS011;3130;41.564;23.280;2023-09-07T06:19:58;31.80;;;22.47;;
6193;SDS011;3130;41.564;23.280;2023-09-07T06:22:26;26.87;;;18.97;;
6193;SDS011;3130;41.564;23.280;2023-09-07T06:24:53;28.47;;;20.73;;
6193;SDS011;3130;41.564;23.280;2023-09-07T06:27:20;26.93;;;19.73;;
6193;SDS011;3130;41.564;23.280;2023-09-07T06:29:48;20.67;;;17.43;;
6193;SDS011;3130;41.564;23.280;2023-09-07T06:32:16;20.10;;;15.97;;
6193;SDS011;3130;41.564;23.280;2023-09-07T06:34:43;20.93;;;16.87;;
6193;SDS011;3130;41.564;23.280;2023-09-07T06:37:10;20.57;;;16.30;;
6193;SDS011;3130;41.564;23.280;2023-09-07T06:39:38;19.80;;;15.97;;
6193;SDS011;3130;41.564;23.280;2023-09-07T06:42:08;26.10;;;18.00;;
6193;SDS011;3130;41.564;23.280;2023-09-07T06:44:35;19.27;;;16.67;;
6193;SDS011;3130;41.564;23.280;2023-09-07T06:47:04;26.40;;;19.03;;
6193;SDS011;3130;41.564;23.280;2023-09-07T06:49:31;19.87;;;16.53;;
6193;SDS011;3130;41.564;23.280;2023-09-07T06:51:58;20.87;;;17.27;;
6193;SDS011;3130;41.564;23.280;2023-09-07T06:54:25;16.70;;;15.00;;
6193;SDS011;3130;41.564;23.280;2023-09-07T06:56:53;17.03;;;15.07;;
6193;SDS011;3130;41.564;23.280;2023-09-07T06:59:20;17.37;;;15.37;;
6193;SDS011;3130;41.564;23.280;2023-09-07T07:01:48;16.60;;;13.70;;
6193;SDS011;3130;41.564;23.280;2023-09-07T07:04:16;16.23;;;13.83;;
6193;SDS011;3130;41.564;23.280;2023-09-07T07:06:43;17.97;;;13.93;;
6193;SDS011;3130;41.564;23.280;2023-09-07T07:09:10;17.43;;;14.93;;
6193;SDS011;3130;41.564;23.280;2023-09-07T07:11:37;14.90;;;13.30;;
6193;SDS011;3130;41.564;23.280;2023-09-07T07:14:04;18.10;;;14.63;;
6193;SDS011;3130;41.564;23.280;2023-09-07T07:16:31;16.10;;;14.30;;
6193;SDS011;3130;41.564;23.280;2023-09-07T07:18:58;17.13;;;15.37;;
6193;SDS011;3130;41.564;23.280;2023-09-07T07:21:26;16.03;;;14.33;;
6193;SDS011;3130;41.564;23.280;2023-09-07T07:23:53;19.97;;;13.67;;
6193;SDS011;3130;41.564;23.280;2023-09-07T07:26:20;15.20;;;13.60;;
6193;SDS011;3130;41.564;23.280;2023-09-07T07:28:47;14.38;;;11.50;;
6193;SDS011;3130;41.564;23.280;2023-09-07T07:31:14;12.57;;;11.18;;
6193;SDS011;3130;41.564;23.280;2023-09-07T07:33:42;14.15;;;11.10;;
6193;SDS011;3130;41.564;23.280;2023-09-07T07:36:09;11.68;;;10.48;;
6193;SDS011;3130;41.564;23.280;2023-09-07T07:38:37;12.43;;;11.13;;
6193;SDS011;3130;41.564;23.280;2023-09-07T07:41:04;11.32;;;10.05;;
6193;SDS011;3130;41.564;23.280;2023-09-07T07:43:32;11.15;;;10.05;;
6193;SDS011;3130;41.564;23.280;2023-09-07T07:45:59;11.80;;;10.27;;
6193;SDS011;3130;41.564;23.280;2023-09-07T07:48:26;10.07;;;8.90;;
6193;SDS011;3130;41.564;23.280;2023-09-07T07:50:54;9.38;;;8.48;;
6193;SDS011;3130;41.564;23.280;2023-09-07T07:53:21;11.10;;;8.68;;
6193;SDS011;3130;41.564;23.280;2023-09-07T07:55:50;9.73;;;8.82;;
6193;SDS011;3130;41.564;23.280;2023-09-07T07:58:17;9.07;;;8.23;;
6193;SDS011;3130;41.564;23.280;2023-09-07T08:00:44;8.90;;;8.00;;
6193;SDS011;3130;41.564;23.280;2023-09-07T08:03:12;10.18;;;8.45;;
6193;SDS011;3130;41.564;23.280;2023-09-07T08:05:40;10.50;;;9.50;;
6193;SDS011;3130;41.564;23.280;2023-09-07T08:08:08;8.02;;;7.22;;
6193;SDS011;3130;41.564;23.280;2023-09-07T08:10:35;12.98;;;8.43;;
6193;SDS011;3130;41.564;23.280;2023-09-07T08:13:04;9.68;;;8.05;;
6193;SDS011;3130;41.564;23.280;2023-09-07T08:15:32;11.05;;;10.05;;
6193;SDS011;3130;41.564;23.280;2023-09-07T08:17:59;10.90;;;8.27;;
6193;SDS011;3130;41.564;23.280;2023-09-07T08:20:27;10.40;;;9.30;;
6193;SDS011;3130;41.564;23.280;2023-09-07T08:22:55;10.55;;;9.52;;
6193;SDS011;3130;41.564;23.280;2023-09-07T08:25:23;11.10;;;9.93;;
6193;SDS011;3130;41.564;23.280;2023-09-07T08:27:51;11.95;;;9.05;;
6193;SDS011;3130;41.564;23.280;2023-09-07T08:30:22;10.95;;;9.07;;
6193;SDS011;3130;41.564;23.280;2023-09-07T08:32:51;11.38;;;9.75;;
6193;SDS011;3130;41.564;23.280;2023-09-07T08:35:18;10.20;;;8.90;;
6193;SDS011;3130;41.564;23.280;2023-09-07T08:37:45;10.85;;;8.77;;
6193;SDS011;3130;41.564;23.280;2023-09-07T08:40:12;10.93;;;8.77;;
6193;SDS011;3130;41.564;23.280;2023-09-07T08:42:42;9.85;;;8.85;;
6193;SDS011;3130;41.564;23.280;2023-09-07T08:45:09;10.52;;;8.60;;
6193;SDS011;3130;41.564;23.280;2023-09-07T08:47:43;10.57;;;9.48;;
6193;SDS011;3130;41.564;23.280;2023-09-07T08:50:11;11.07;;;9.13;;
6193;SDS011;3130;41.564;23.280;2023-09-07T08:52:41;12.48;;;9.18;;
6193;SDS011;3130;41.564;23.280;2023-09-07T08:55:10;11.73;;;9.27;;
6193;SDS011;3130;41.564;23.280;2023-09-07T08:57:38;10.20;;;8.75;;
6193;SDS011;3130;41.564;23.280;2023-09-07T09:00:06;11.80;;;9.43;;
6193;SDS011;3130;41.564;23.280;2023-09-07T09:02:41;12.45;;;8.70;;
6193;SDS011;3130;41.564;23.280;2023-09-07T09:05:12;9.77;;;8.57;;
6193;SDS011;3130;41.564;23.280;2023-09-07T09:07:43;11.13;;;8.63;;
6193;SDS011;3130;41.564;23.280;2023-09-07T09:10:10;10.40;;;9.05;;
6193;SDS011;3130;41.564;23.280;2023-09-07T09:12:44;10.25;;;9.20;;
6193;SDS011;3130;41.564;23.280;2023-09-07T09:15:12;10.60;;;8.32;;
6193;SDS011;3130;41.564;23.280;2023-09-07T09:17:39;10.38;;;7.88;;
6193;SDS011;3130;41.564;23.280;2023-09-07T09:20:20;9.23;;;7.10;;
6193;SDS011;3130;41.564;23.280;2023-09-07T09:22:50;9.65;;;7.43;;
6193;SDS011;3130;41.564;23.280;2023-09-07T09:25:18;9.30;;;7.55;;
6193;SDS011;3130;41.564;23.280;2023-09-07T09:27:46;8.23;;;6.95;;
6193;SDS011;3130;41.564;23.280;2023-09-07T09:30:13;8.20;;;7.25;;
6193;SDS011;3130;41.564;23.280;2023-09-07T09:32:41;10.85;;;6.57;;
6193;SDS011;3130;41.564;23.280;2023-09-07T09:35:09;8.25;;;6.50;;
6193;SDS011;3130;41.564;23.280;2023-09-07T09:37:44;8.85;;;7.55;;
6193;SDS011;3130;41.564;23.280;2023-09-07T09:40:12;8.60;;;6.80;;
6193;SDS011;3130;41.564;23.280;2023-09-07T09:42:40;8.18;;;7.22;;
6193;SDS011;3130;41.564;23.280;2023-09-07T09:45:09;7.80;;;6.68;;
6193;SDS011;3130;41.564;23.280;2023-09-07T09:47:38;7.95;;;6.30;;
6193;SDS011;3130;41.564;23.280;2023-09-07T09:50:07;10.52;;;8.20;;
6193;SDS011;3130;41.564;23.280;2023-09-07T09:52:35;9.45;;;7.38;;
6193;SDS011;3130;41.564;23.280;2023-09-07T09:55:05;9.02;;;6.95;;
6193;SDS011;3130;41.564;23.280;2023-09-07T09:57:34;8.00;;;6.57;;
6193;SDS011;3130;41.564;23.280;2023-09-07T10:00:02;12.40;;;8.30;;
6193;SDS011;3130;41.564;23.280;2023-09-07T10:02:45;7.68;;;6.57;;
6193;SDS011;3130;41.564;23.280;2023-09-07T10:05:15;7.57;;;6.75;;
6193;SDS011;3130;41.564;23.280;2023-09-07T10:07:44;9.05;;;7.93;;
6193;SDS011;3130;41.564;23.280;2023-09-07T10:10:16;6.95;;;5.50;;
6193;SDS011;3130;41.564;23.280;2023-09-07T10:12:45;7.20;;;5.25;;
6193;SDS011;3130;41.564;23.280;2023-09-07T10:15:22;5.50;;;5.00;;
6193;SDS011;3130;41.564;23.280;2023-09-07T10:17:50;6.35;;;5.75;;
6193;SDS011;3130;41.564;23.280;2023-09-07T10:20:28;7.50;;;5.75;;
6193;SDS011;3130;41.564;23.280;2023-09-07T10:23:01;6.57;;;5.15;;
6193;SDS011;3130;41.564;23.280;2023-09-07T10:25:31;7.00;;;5.95;;
6193;SDS011;3130;41.564;23.280;2023-09-07T10:27:58;7.72;;;4.85;;
6193;SDS011;3130;41.564;23.280;2023-09-07T10:30:25;5.47;;;4.68;;
6193;SDS011;3130;41.564;23.280;2023-09-07T10:32:52;5.35;;;4.85;;
6193;SDS011;3130;41.564;23.280;2023-09-07T10:35:19;7.20;;;5.07;;
6193;SDS011;3130;41.564;23.280;2023-09-07T10:37:49;5.03;;;4.47;;
6193;SDS011;3130;41.564;23.280;2023-09-07T10:40:19;6.68;;;5.00;;
6193;SDS011;3130;41.564;23.280;2023-09-07T10:42:48;5.35;;;4.40;;
6193;SDS011;3130;41.564;23.280;2023-09-07T10:45:16;4.70;;;4.03;;
6193;SDS011;3130;41.564;23.280;2023-09-07T10:47:43;3.95;;;3.53;;
6193;SDS011;3130;41.564;23.280;2023-09-07T10:50:11;5.85;;;4.78;;
6193;SDS011;3130;41.564;23.280;2023-09-07T10:52:39;6.07;;;5.10;;
6193;SDS011;3130;41.564;23.280;2023-09-07T10:55:08;6.53;;;4.25;;
6193;SDS011;3130;41.564;23.280;2023-09-07T10:57:42;6.43;;;4.50;;
6193;SDS011;3130;41.564;23.280;2023-09-07T11:00:14;5.25;;;4.75;;
6193;SDS011;3130;41.564;23.280;2023-09-07T11:02:42;4.75;;;4.35;;
6193;SDS011;3130;41.564;23.280;2023-09-07T11:05:09;4.95;;;3.78;;
6193;SDS011;3130;41.564;23.280;2023-09-07T11:07:36;4.72;;;4.10;;
6193;SDS011;3130;41.564;23.280;2023-09-07T11:10:06;6.65;;;5.07;;
6193;SDS011;3130;41.564;23.280;2023-09-07T11:12:37;5.03;;;4.30;;
6193;SDS011;3130;41.564;23.280;2023-09-07T11:15:05;7.00;;;4.97;;
6193;SDS011;3130;41.564;23.280;2023-09-07T11:17:37;5.97;;;4.18;;
6193;SDS011;3130;41.564;23.280;2023-09-07T11:20:06;6.15;;;4.47;;
6193;SDS011;3130;41.564;23.280;2023-09-07T11:22:35;5.28;;;4.78;;
6193;SDS011;3130;41.564;23.280;2023-09-07T11:25:04;5.80;;;5.07;;
6193;SDS011;3130;41.564;23.280;2023-09-07T11:27:32;5.53;;;4.65;;
6193;SDS011;3130;41.564;23.280;2023-09-07T11:30:00;4.97;;;4.47;;
6193;SDS011;3130;41.564;23.280;2023-09-07T11:32:33;4.53;;;4.07;;
6193;SDS011;3130;41.564;23.280;2023-09-07T11:35:02;7.15;;;4.68;;
6193;SDS011;3130;41.564;23.280;2023-09-07T11:37:32;4.72;;;4.32;;
6193;SDS011;3130;41.564;23.280;2023-09-07T11:40:00;4.93;;;4.43;;
6193;SDS011;3130;41.564;23.280;2023-09-07T11:42:29;7.72;;;4.40;;
6193;SDS011;3130;41.564;23.280;2023-09-07T11:44:56;5.05;;;4.30;;
6193;SDS011;3130;41.564;23.280;2023-09-07T11:47:23;5.20;;;4.63;;
6193;SDS011;3130;41.564;23.280;2023-09-07T11:49:50;5.45;;;4.50;;
6193;SDS011;3130;41.564;23.280;2023-09-07T11:52:19;7.75;;;4.70;;
6193;SDS011;3130;41.564;23.280;2023-09-07T11:54:48;6.10;;;4.50;;
6193;SDS011;3130;41.564;23.280;2023-09-07T11:57:15;4.97;;;4.57;;
6193;SDS011;3130;41.564;23.280;2023-09-07T11:59:42;4.65;;;4.25;;
6193;SDS011;3130;41.564;23.280;2023-09-07T12:02:09;5.00;;;4.50;;
6193;SDS011;3130;41.564;23.280;2023-09-07T12:04:39;6.22;;;4.15;;
6193;SDS011;3130;41.564;23.280;2023-09-07T12:07:06;5.57;;;4.35;;
6193;SDS011;3130;41.564;23.280;2023-09-07T12:09:35;5.05;;;4.38;;
6193;SDS011;3130;41.564;23.280;2023-09-07T12:12:03;4.90;;;4.07;;
6193;SDS011;3130;41.564;23.280;2023-09-07T12:14:30;5.10;;;4.30;;
6193;SDS011;3130;41.564;23.280;2023-09-07T12:16:57;5.18;;;4.60;;
6193;SDS011;3130;41.564;23.280;2023-09-07T12:19:25;4.80;;;4.30;;
6193;SDS011;3130;41.564;23.280;2023-09-07T12:21:52;5.70;;;3.67;;
6193;SDS011;3130;41.564;23.280;2023-09-07T12:24:19;5.22;;;4.72;;
6193;SDS011;3130;41.564;23.280;2023-09-07T12:26:48;4.90;;;4.38;;
6193;SDS011;3130;41.564;23.280;2023-09-07T12:29:15;4.68;;;4.10;;
6193;SDS011;3130;41.564;23.280;2023-09-07T12:31:41;5.03;;;4.50;;
6193;SDS011;3130;41.564;23.280;2023-09-07T12:34:08;5.78;;;4.95;;
6193;SDS011;3130;41.564;23.280;2023-09-07T12:36:35;5.07;;;4.57;;
6193;SDS011;3130;41.564;23.280;2023-09-07T12:39:03;6.18;;;5.57;;
6193;SDS011;3130;41.564;23.280;2023-09-07T12:41:30;5.22;;;4.72;;
6193;SDS011;3130;41.564;23.280;2023-09-07T12:44:09;8.02;;;5.47;;
6193;SDS011;3130;41.564;23.280;2023-09-07T12:46:53;5.53;;;5.00;;
6193;SDS011;3130;41.564;23.280;2023-09-07T12:49:21;5.60;;;5.07;;
6193;SDS011;3130;41.564;23.280;2023-09-07T12:51:48;5.10;;;4.60;;
6193;SDS011;3130;41.564;23.280;2023-09-07T12:54:15;7.80;;;4.75;;
6193;SDS011;3130;41.564;23.280;2023-09-07T12:56:42;5.97;;;5.38;;
6193;SDS011;3130;41.564;23.280;2023-09-07T12:59:11;6.60;;;5.50;;
6193;SDS011;3130;41.564;23.280;2023-09-07T13:01:41;7.97;;;5.25;;
6193;SDS011;3130;41.564;23.280;2023-09-07T13:04:12;5.65;;;5.15;;
6193;SDS011;3130;41.564;23.280;2023-09-07T13:06:39;6.47;;;5.03;;
6193;SDS011;3130;41.564;23.280;2023-09-07T13:09:06;9.20;;;5.80;;
6193;SDS011;3130;41.564;23.280;2023-09-07T13:11:34;6.22;;;5.63;;
6193;SDS011;3130;41.564;23.280;2023-09-07T13:14:01;6.50;;;4.53;;
6193;SDS011;3130;41.564;23.280;2023-09-07T13:19:24;5.35;;;4.85;;
6193;SDS011;3130;41.564;23.280;2023-09-07T13:21:51;5.50;;;5.00;;
6193;SDS011;3130;41.564;23.280;2023-09-07T13:24:18;6.47;;;5.45;;
6193;SDS011;3130;41.564;23.280;2023-09-07T13:26:46;8.23;;;4.53;;
6193;SDS011;3130;41.564;23.280;2023-09-07T13:29:13;9.02;;;5.95;;
6193;SDS011;3130;41.564;23.280;2023-09-07T13:31:40;4.85;;;4.43;;
6193;SDS011;3130;41.564;23.280;2023-09-07T13:34:08;5.47;;;4.93;;
6193;SDS011;3130;41.564;23.280;2023-09-07T13:36:35;8.15;;;5.93;;
6193;SDS011;3130;41.564;23.280;2023-09-07T13:39:03;9.30;;;8.30;;
6193;SDS011;3130;41.564;23.280;2023-09-07T13:41:30;9.10;;;7.97;;
6193;SDS011;3130;41.564;23.280;2023-09-07T13:43:57;7.07;;;6.38;;
6193;SDS011;3130;41.564;23.280;2023-09-07T13:46:25;10.95;;;9.57;;
6193;SDS011;3130;41.564;23.280;2023-09-07T13:48:52;7.35;;;5.97;;
6193;SDS011;3130;41.564;23.280;2023-09-07T13:51:21;8.77;;;6.38;;
6193;SDS011;3130;41.564;23.280;2023-09-07T13:53:49;11.82;;;10.82;;
6193;SDS011;3130;41.564;23.280;2023-09-07T13:56:17;8.48;;;7.43;;
6193;SDS011;3130;41.564;23.280;2023-09-07T13:58:44;7.82;;;6.07;;
6193;SDS011;3130;41.564;23.280;2023-09-07T14:01:11;9.65;;;8.75;;
6193;SDS011;3130;41.564;23.280;2023-09-07T14:03:38;7.50;;;6.38;;
6193;SDS011;3130;41.564;23.280;2023-09-07T14:06:05;8.10;;;7.40;;
6193;SDS011;3130;41.564;23.280;2023-09-07T14:08:34;8.20;;;7.40;;
6193;SDS011;3130;41.564;23.280;2023-09-07T14:11:01;7.20;;;6.10;;
6193;SDS011;3130;41.564;23.280;2023-09-07T14:13:28;6.90;;;5.93;;
6193;SDS011;3130;41.564;23.280;2023-09-07T14:15:55;6.47;;;5.88;;
6193;SDS011;3130;41.564;23.280;2023-09-07T14:18:22;5.75;;;5.15;;
6193;SDS011;3130;41.564;23.280;2023-09-07T14:20:49;10.55;;;7.28;;
6193;SDS011;3130;41.564;23.280;2023-09-07T14:23:16;6.95;;;5.70;;
6193;SDS011;3130;41.564;23.280;2023-09-07T14:25:47;6.68;;;5.97;;
6193;SDS011;3130;41.564;23.280;2023-09-07T14:28:14;6.75;;;5.60;;
6193;SDS011;3130;41.564;23.280;2023-09-07T14:30:41;9.77;;;6.45;;
6193;SDS011;3130;41.564;23.280;2023-09-07T14:33:08;10.88;;;6.88;;
6193;SDS011;3130;41.564;23.280;2023-09-07T14:35:35;10.55;;;7.60;;
6193;SDS011;3130;41.564;23.280;2023-09-07T14:38:02;8.70;;;6.38;;
6193;SDS011;3130;41.564;23.280;2023-09-07T14:40:29;10.10;;;7.35;;
6193;SDS011;3130;41.564;23.280;2023-09-07T14:42:58;9.73;;;6.85;;
6193;SDS011;3130;41.564;23.280;2023-09-07T14:45:25;8.98;;;6.82;;
6193;SDS011;3130;41.564;23.280;2023-09-07T14:47:52;12.98;;;8.63;;
6193;SDS011;3130;41.564;23.280;2023-09-07T14:50:19;9.45;;;7.10;;
6193;SDS011;3130;41.564;23.280;2023-09-07T14:52:46;7.55;;;6.35;;
6193;SDS011;3130;41.564;23.280;2023-09-07T14:55:13;8.65;;;7.18;;